This is the latest recevied weather packets stored in our database for station/object K4AMF. If no packets are shown the sender has not sent any weather packets the latest 10 day(s).
| Time | Temp. | Humidity | Pressure | Rain* | Wind** | Luminosity | Snow |
|---|---|---|---|---|---|---|---|
| 1777693233 | 21.67° C | 82% | 1012.6 hPa | 0 mm | - | 0 W/m² | - |
| 1777692931 | 21.67° C | 82% | 1012.7 hPa | 0 mm | - | 0 W/m² | - |
| 1777692628 | 21.67° C | 81% | 1012.7 hPa | 0 mm | - | 0 W/m² | - |
| 1777692323 | 21.67° C | 81% | 1012.7 hPa | 0 mm | - | 0 W/m² | - |
| 1777692020 | 22.22° C | 80% | 1012.7 hPa | 0 mm | - | 0 W/m² | - |
| 1777691718 | 22.22° C | 80% | 1012.7 hPa | 0 mm | - | 0 W/m² | - |
| 1777691416 | 21.67° C | 80% | 1012.6 hPa | 0 mm | - | 0 W/m² | - |
| 1777691114 | 21.67° C | 80% | 1012.4 hPa | 0 mm | - | 0 W/m² | - |
| 1777690811 | 22.22° C | 82% | 1012.2 hPa | 0 mm | - | 0 W/m² | - |
| 1777690508 | 22.22° C | 82% | 1012.3 hPa | 0 mm | - | 0 W/m² | - |
| 1777690201 | 22.22° C | 82% | 1012.9 hPa | 0 mm | - | 0 W/m² | - |
| 1777689898 | 22.22° C | 83% | 1012.5 hPa | 0 mm | - | 0 W/m² | - |
| 1777689597 | 22.22° C | 84% | 1012.7 hPa | 0 mm | - | 0 W/m² | - |
| 1777689294 | 22.22° C | 85% | 1012.9 hPa | 0 mm | - | 0 W/m² | - |
| 1777688991 | 22.22° C | 85% | 1013 hPa | 0 mm | - | 0 W/m² | - |
| 1777688688 | 22.22° C | 85% | 1013 hPa | 0 mm | - | 0 W/m² | - |
| 1777687779 | 22.78° C | 87% | 1012.8 hPa | 0 mm | - | 0 W/m² | - |
| 1777674137 | 28.89° C | 61% | 1010.3 hPa | 0 mm | - | 28 W/m² | - |
| 1777673833 | 28.89° C | 61% | 1010 hPa | 0 mm | - | 29 W/m² | - |
| 1777673531 | 28.89° C | 61% | 1010.1 hPa | 0 mm | - | 30 W/m² | - |
| 1777672926 | 28.89° C | 61% | 1010 hPa | 0 mm | - | 42 W/m² | - |
| 1777672622 | 28.89° C | 60% | 1010.1 hPa | 0 mm | - | 58 W/m² | - |
| 1777672317 | 28.89° C | 61% | 1010.3 hPa | 0 mm | - | 70 W/m² | - |
| 1777671405 | 28.89° C | 61% | 1010.3 hPa | 0 mm | - | 84 W/m² | - |
| 1777671101 | 28.89° C | 60% | 1010.4 hPa | 0 mm | - | 76 W/m² | - |
* Rain latest hour (hover to see other rain measurements)
** Current wind speed in m/s (hover to see current wind gust speed)